Time;durP1;ratioP1;P1;durP2;ratioP2;P2;SDS_P1;SDS_P2;PMS_P1;PMS_P2;Temp;Humidity;BMP_temperature;BMP_pressure;BME280_temperature;BME280_humidity;BME280_pressure;Samples;Min_cycle;Max_cycle;Signal;HPM_P1;HPM_P2
2022/07/09 00:01:41;;;;;;;10.65;1.70;;;42.20;21.20;;;;;;5087952;28;20031;-60
2022/07/09 00:04:07;;;;;;;17.73;1.95;;;42.20;21.80;;;;;;5079066;28;20034;-60
2022/07/09 00:06:33;;;;;;;18.98;2.00;;;42.30;22.60;;;;;;5081768;28;20407;-59
2022/07/09 00:09:00;;;;;;;16.85;2.20;;;42.20;22.00;;;;;;5082930;28;20060;-60
2022/07/09 00:11:26;;;;;;;15.40;2.10;;;42.30;22.20;;;;;;5084489;28;20032;-60
2022/07/09 00:13:53;;;;;;;8.20;1.75;;;42.30;21.40;;;;;;5085899;28;20086;-60
2022/07/09 00:16:19;;;;;;;12.30;2.10;;;42.40;22.80;;;;;;5088119;28;20032;-60
2022/07/09 00:18:45;;;;;;;13.57;2.30;;;42.40;22.60;;;;;;5087308;28;20061;-60
2022/07/09 00:21:12;;;;;;;14.82;2.03;;;42.40;22.70;;;;;;5087824;28;20122;-60
2022/07/09 00:23:38;;;;;;;8.30;2.10;;;42.40;24.20;;;;;;5072895;28;20073;-60
2022/07/09 00:26:05;;;;;;;8.45;1.92;;;42.40;21.20;;;;;;5090197;28;20462;-60
2022/07/09 00:28:31;;;;;;;20.85;2.63;;;42.40;23.80;;;;;;5102515;28;20070;-58
2022/07/09 00:30:57;;;;;;;12.93;2.30;;;42.40;23.20;;;;;;5090137;28;20045;-59
2022/07/09 00:33:24;;;;;;;10.05;2.70;;;42.30;21.50;;;;;;5089456;28;20128;-60
2022/07/09 00:35:50;;;;;;;18.27;2.28;;;42.30;22.30;;;;;;5092447;28;20019;-61
2022/07/09 00:38:17;;;;;;;13.15;2.70;;;42.30;22.50;;;;;;5091706;28;20039;-59
2022/07/09 00:40:43;;;;;;;15.50;2.50;;;42.40;23.10;;;;;;5093107;28;20031;-61
2022/07/09 00:43:17;;;;;;;18.58;2.92;;;42.30;21.30;;;;;;5089684;28;20108;-60
2022/07/09 00:45:44;;;;;;;12.35;2.38;;;42.30;21.60;;;;;;5111063;28;20034;-61
2022/07/09 00:48:10;;;;;;;12.70;2.17;;;42.20;21.40;;;;;;5090634;28;20064;-62
2022/07/09 00:50:37;;;;;;;11.05;2.45;;;42.20;21.60;;;;;;5073655;28;20030;-62
2022/07/09 00:53:05;;;;;;;11.57;2.60;;;42.20;22.40;;;;;;5108709;28;20451;-61
2022/07/09 00:55:32;;;;;;;16.45;2.38;;;42.10;21.60;;;;;;5074893;28;20062;-60
2022/07/09 00:57:59;;;;;;;12.57;2.33;;;42.10;21.70;;;;;;5073591;28;20089;-60
2022/07/09 01:00:26;;;;;;;10.10;2.20;;;42.00;20.90;;;;;;5090293;28;20039;-60
2022/07/09 01:02:57;;;;;;;11.43;2.05;;;42.00;21.00;;;;;;5108923;28;20072;-61
2022/07/09 01:05:23;;;;;;;14.35;2.10;;;42.00;21.00;;;;;;5075350;28;20122;-58
2022/07/09 01:07:50;;;;;;;12.35;2.33;;;41.90;21.30;;;;;;5103246;28;20039;-60
2022/07/09 01:10:18;;;;;;;13.95;1.95;;;41.90;22.30;;;;;;5088612;28;20442;-61
2022/07/09 01:12:45;;;;;;;14.13;2.40;;;41.70;20.90;;;;;;5086158;28;20057;-61
2022/07/09 01:15:12;;;;;;;17.38;2.22;;;41.70;21.60;;;;;;5110698;28;20040;-59
2022/07/09 01:17:40;;;;;;;12.75;2.30;;;41.70;22.60;;;;;;5104843;28;20062;-61
2022/07/09 01:20:08;;;;;;;16.30;2.60;;;41.60;22.60;;;;;;5110715;28;20507;-62
2022/07/09 01:22:35;;;;;;;10.75;2.22;;;41.50;21.90;;;;;;5110357;28;20082;-60
2022/07/09 01:25:07;;;;;;;20.05;2.70;;;41.50;21.60;;;;;;5089862;28;20045;-60
2022/07/09 01:27:34;;;;;;;10.88;2.10;;;41.40;21.50;;;;;;5109660;28;21460;-61
2022/07/09 01:30:00;;;;;;;12.82;2.30;;;41.40;22.40;;;;;;5092052;28;20052;-58
2022/07/09 01:32:27;;;;;;;12.25;2.08;;;41.20;21.40;;;;;;5090147;28;20079;-61
2022/07/09 01:34:53;;;;;;;14.65;2.58;;;41.20;23.10;;;;;;5109145;28;20030;-58
2022/07/09 01:37:20;;;;;;;16.17;3.70;;;41.10;22.80;;;;;;5091768;28;20036;-62
2022/07/09 01:39:50;;;;;;;15.30;2.50;;;41.10;22.60;;;;;;5087823;28;20068;-63
2022/07/09 01:42:18;;;;;;;14.45;2.58;;;40.90;22.20;;;;;;5091430;28;20046;-60
2022/07/09 01:44:48;;;;;;;16.00;2.83;;;40.90;22.20;;;;;;5084446;28;20051;-59
2022/07/09 01:47:14;;;;;;;15.85;2.15;;;40.90;22.40;;;;;;5103175;28;20504;-63
2022/07/09 01:49:50;;;;;;;12.73;2.53;;;40.80;22.20;;;;;;5087170;28;20398;-63
2022/07/09 01:52:16;;;;;;;12.43;1.95;;;40.80;23.40;;;;;;5088037;28;20129;-59
2022/07/09 01:54:42;;;;;;;20.17;2.00;;;40.80;23.20;;;;;;5089667;28;20047;-61
2022/07/09 01:57:09;;;;;;;10.85;2.40;;;40.60;22.40;;;;;;5058585;28;20099;-60
2022/07/09 01:59:36;;;;;;;22.80;2.80;;;40.50;24.70;;;;;;5105938;28;20118;-61
2022/07/09 02:02:03;;;;;;;15.82;2.53;;;40.30;24.00;;;;;;5091647;28;20118;-61
2022/07/09 02:04:30;;;;;;;17.70;2.75;;;40.20;23.00;;;;;;5108871;28;20479;-62
2022/07/09 02:06:58;;;;;;;24.35;3.08;;;40.10;23.30;;;;;;5107508;28;20042;-61
2022/07/09 02:09:24;;;;;;;28.33;3.35;;;40.10;23.10;;;;;;5109179;28;20068;-61
2022/07/09 02:11:51;;;;;;;17.13;2.80;;;40.00;23.80;;;;;;5091072;28;20564;-62
2022/07/09 02:14:18;;;;;;;13.90;2.60;;;39.90;23.50;;;;;;5109713;28;20045;-62
2022/07/09 02:16:44;;;;;;;8.15;1.92;;;39.90;23.70;;;;;;5093618;28;20048;-61
2022/07/09 02:19:11;;;;;;;16.35;2.63;;;39.70;23.10;;;;;;5109697;28;20081;-62
2022/07/09 02:21:38;;;;;;;15.27;2.72;;;39.60;23.60;;;;;;5091739;28;20063;-61
2022/07/09 02:24:05;;;;;;;18.15;2.40;;;39.60;23.40;;;;;;5109895;28;20080;-61
2022/07/09 02:26:32;;;;;;;12.73;2.97;;;39.50;23.30;;;;;;5104587;28;20051;-63
2022/07/09 02:28:59;;;;;;;15.85;2.80;;;39.40;23.30;;;;;;5087084;28;20095;-60
2022/07/09 02:31:27;;;;;;;10.60;2.47;;;39.30;23.20;;;;;;5113997;28;20079;-58
2022/07/09 02:33:54;;;;;;;14.18;2.63;;;39.20;23.50;;;;;;5088619;28;20143;-60
2022/07/09 02:36:20;;;;;;;23.25;2.80;;;39.10;23.20;;;;;;5088445;28;20067;-60
2022/07/09 02:38:47;;;;;;;22.15;3.63;;;39.10;24.20;;;;;;5073845;28;20055;-60
2022/07/09 02:41:14;;;;;;;16.27;2.33;;;38.90;23.40;;;;;;5090277;28;20114;-61
2022/07/09 02:43:43;;;;;;;14.80;2.42;;;38.80;23.40;;;;;;5089750;28;20060;-59
2022/07/09 02:46:13;;;;;;;13.68;2.83;;;38.70;23.20;;;;;;5090039;28;20117;-59
2022/07/09 02:48:39;;;;;;;16.48;2.20;;;38.70;24.20;;;;;;5082793;28;20491;-57
2022/07/09 02:51:06;;;;;;;17.55;2.63;;;38.60;23.80;;;;;;5072682;28;20140;-60
2022/07/09 02:53:32;;;;;;;17.08;2.63;;;38.50;23.80;;;;;;5108177;28;20093;-60
2022/07/09 02:55:58;;;;;;;16.60;2.50;;;38.40;24.20;;;;;;5104457;28;20103;-61
2022/07/09 02:58:25;;;;;;;11.63;2.58;;;38.40;24.30;;;;;;5089657;28;20054;-61
2022/07/09 03:00:51;;;;;;;23.65;2.90;;;38.30;24.70;;;;;;5104924;28;20394;-57
2022/07/09 03:03:18;;;;;;;25.90;4.22;;;38.20;24.20;;;;;;5073167;28;20061;-59
2022/07/09 03:05:44;;;;;;;10.90;2.80;;;38.20;24.70;;;;;;5089701;28;20572;-60
2022/07/09 03:08:10;;;;;;;30.48;2.92;;;38.10;24.50;;;;;;5087919;28;20508;-60
2022/07/09 03:10:37;;;;;;;18.88;4.00;;;38.00;24.60;;;;;;5080924;28;20126;-60
2022/07/09 03:13:03;;;;;;;23.20;2.70;;;37.90;24.80;;;;;;5080702;28;20053;-61
2022/07/09 03:15:29;;;;;;;32.40;3.72;;;37.80;24.70;;;;;;5090738;28;20504;-59
2022/07/09 03:17:56;;;;;;;23.27;3.20;;;37.70;25.90;;;;;;5103928;28;20049;-60
2022/07/09 03:20:22;;;;;;;26.80;4.47;;;37.70;25.80;;;;;;5084070;28;20161;-61
2022/07/09 03:22:48;;;;;;;28.77;4.05;;;37.60;25.90;;;;;;5083819;28;20057;-59
2022/07/09 03:25:15;;;;;;;25.15;3.83;;;37.60;26.30;;;;;;5085897;28;20050;-57
2022/07/09 03:27:41;;;;;;;22.50;3.65;;;37.50;26.70;;;;;;5064571;28;20183;-59
2022/07/09 03:30:08;;;;;;;24.10;3.80;;;37.40;26.30;;;;;;5066736;28;20535;-58
2022/07/09 03:32:34;;;;;;;19.73;3.97;;;37.40;25.70;;;;;;5069879;28;20072;-57
2022/07/09 03:35:01;;;;;;;27.00;3.67;;;37.40;24.00;;;;;;5089941;28;20484;-61
2022/07/09 03:37:27;;;;;;;25.33;3.70;;;37.40;24.10;;;;;;5091032;28;20556;-59
2022/07/09 03:39:53;;;;;;;24.67;3.15;;;37.40;25.00;;;;;;5090192;28;20054;-57
2022/07/09 03:42:20;;;;;;;18.42;2.88;;;37.30;24.80;;;;;;5071661;28;20425;-61
2022/07/09 03:44:46;;;;;;;12.75;3.20;;;37.30;24.00;;;;;;5089804;28;20527;-59
2022/07/09 03:47:12;;;;;;;15.00;2.63;;;37.30;24.10;;;;;;5088863;28;20067;-57
2022/07/09 03:49:39;;;;;;;13.25;2.88;;;37.20;23.70;;;;;;5089208;28;20071;-58
2022/07/09 03:52:06;;;;;;;16.48;2.80;;;37.20;23.90;;;;;;5056030;28;20066;-57
2022/07/09 03:54:32;;;;;;;13.50;3.00;;;37.10;23.90;;;;;;5087333;28;20112;-58
2022/07/09 03:56:58;;;;;;;21.00;3.00;;;37.00;23.90;;;;;;5085970;28;20144;-58
2022/07/09 03:59:25;;;;;;;14.25;2.50;;;36.90;23.90;;;;;;5085788;28;20066;-59
2022/07/09 04:01:51;;;;;;;11.52;2.95;;;36.80;23.80;;;;;;5083917;28;20067;-58
2022/07/09 04:04:17;;;;;;;11.35;2.78;;;36.70;24.20;;;;;;5089093;28;20188;-57
2022/07/09 04:06:44;;;;;;;16.85;2.97;;;36.60;23.70;;;;;;5090034;28;20067;-57
2022/07/09 04:09:10;;;;;;;18.90;3.08;;;36.60;23.60;;;;;;5083178;28;20108;-60
2022/07/09 04:11:37;;;;;;;27.60;3.30;;;36.50;23.40;;;;;;5088937;28;20061;-59
2022/07/09 04:14:04;;;;;;;16.13;3.22;;;36.40;23.50;;;;;;5088287;28;21168;-59
2022/07/09 04:16:30;;;;;;;20.45;3.13;;;36.30;23.50;;;;;;5091022;28;20066;-62
2022/07/09 04:18:57;;;;;;;12.93;2.63;;;36.20;23.60;;;;;;5072763;28;20076;-60
2022/07/09 04:21:24;;;;;;;22.08;2.88;;;36.20;23.50;;;;;;5086768;28;20059;-58
2022/07/09 04:23:51;;;;;;;15.05;2.80;;;36.10;23.80;;;;;;5089791;28;20093;-58
2022/07/09 04:26:18;;;;;;;24.10;2.78;;;36.10;23.70;;;;;;5070534;28;20162;-60
2022/07/09 04:28:45;;;;;;;21.50;3.25;;;36.00;24.20;;;;;;5053643;28;20564;-55
2022/07/09 04:31:12;;;;;;;22.52;3.42;;;35.90;23.70;;;;;;5071805;28;20074;-68
2022/07/09 04:33:38;;;;;;;11.25;2.60;;;35.90;24.60;;;;;;5088731;28;20078;-62
2022/07/09 04:36:05;;;;;;;23.85;3.33;;;35.80;23.70;;;;;;5088720;28;20423;-61
2022/07/09 04:38:31;;;;;;;19.98;2.63;;;35.80;24.30;;;;;;5106868;28;20597;-63
2022/07/09 04:40:58;;;;;;;25.42;2.80;;;35.70;24.10;;;;;;5088627;28;20167;-63
2022/07/09 04:43:24;;;;;;;22.20;2.70;;;35.60;23.90;;;;;;5083891;28;20090;-61
2022/07/09 04:45:51;;;;;;;22.98;3.25;;;35.60;24.20;;;;;;5088689;28;20542;-61
2022/07/09 04:48:17;;;;;;;15.73;3.40;;;35.50;23.90;;;;;;5087634;28;20958;-61
2022/07/09 04:50:44;;;;;;;15.10;3.00;;;35.50;23.50;;;;;;5088039;28;20084;-61
2022/07/09 04:53:10;;;;;;;14.18;3.33;;;35.50;25.10;;;;;;5088138;28;20067;-61
2022/07/09 04:55:36;;;;;;;17.05;2.90;;;35.40;25.00;;;;;;5071540;28;20063;-62
2022/07/09 04:58:03;;;;;;;17.92;3.42;;;35.30;24.80;;;;;;5088360;28;20130;-62
2022/07/09 05:00:29;;;;;;;15.40;3.13;;;35.30;24.90;;;;;;5082144;28;20480;-61
2022/07/09 05:02:55;;;;;;;22.02;3.53;;;35.10;24.80;;;;;;5084497;28;20483;-63
2022/07/09 05:05:23;;;;;;;18.20;3.05;;;35.10;26.20;;;;;;5071284;28;20100;-61
2022/07/09 05:07:49;;;;;;;20.90;2.85;;;35.00;26.20;;;;;;5088328;28;20468;-63
2022/07/09 05:10:16;;;;;;;15.80;2.42;;;34.90;25.80;;;;;;5088378;28;20152;-62
2022/07/09 05:12:42;;;;;;;25.77;3.17;;;34.90;25.60;;;;;;5087948;28;20547;-64
2022/07/09 05:15:10;;;;;;;12.18;2.58;;;34.80;26.30;;;;;;5082787;28;20110;-62
2022/07/09 05:17:37;;;;;;;16.00;2.83;;;34.80;25.70;;;;;;5088552;28;20099;-64
2022/07/09 05:20:05;;;;;;;15.02;2.50;;;34.70;25.70;;;;;;5091021;28;20088;-63
2022/07/09 05:22:32;;;;;;;23.13;2.85;;;34.70;25.70;;;;;;5084432;28;20079;-62
2022/07/09 05:24:59;;;;;;;18.52;3.13;;;34.60;25.60;;;;;;5103816;28;20079;-61
2022/07/09 05:27:26;;;;;;;17.55;2.30;;;34.60;25.60;;;;;;5091888;28;20452;-61
2022/07/09 05:29:53;;;;;;;19.70;2.95;;;34.50;26.30;;;;;;5107227;28;20084;-63
2022/07/09 05:32:19;;;;;;;10.10;2.60;;;34.50;26.30;;;;;;5107899;28;20090;-61
2022/07/09 05:34:46;;;;;;;11.80;2.80;;;34.40;26.20;;;;;;5091361;28;20089;-61
2022/07/09 05:37:12;;;;;;;17.15;2.88;;;34.40;26.60;;;;;;5109069;28;20071;-63
2022/07/09 05:39:39;;;;;;;14.20;2.58;;;34.30;26.60;;;;;;5081689;28;20127;-61
2022/07/09 05:42:06;;;;;;;14.98;2.40;;;34.20;25.90;;;;;;5085761;28;22122;-60
2022/07/09 05:44:32;;;;;;;13.07;2.35;;;34.20;27.20;;;;;;5108960;28;20098;-63
2022/07/09 05:46:59;;;;;;;10.70;2.65;;;34.10;27.30;;;;;;5090266;28;20440;-60
2022/07/09 05:49:25;;;;;;;18.73;2.88;;;34.10;27.20;;;;;;5108101;28;20437;-63
2022/07/09 05:51:52;;;;;;;15.55;2.20;;;34.00;27.30;;;;;;5091068;28;20071;-61
2022/07/09 05:54:18;;;;;;;16.35;2.42;;;33.90;28.50;;;;;;5090259;28;20066;-60
2022/07/09 05:56:45;;;;;;;11.88;2.88;;;33.80;28.50;;;;;;5075462;28;20166;-61
2022/07/09 05:59:12;;;;;;;15.75;2.10;;;33.70;28.30;;;;;;5107266;28;20102;-60
2022/07/09 06:01:42;;;;;;;11.18;2.60;;;33.60;27.50;;;;;;5089222;28;20102;-61
2022/07/09 06:04:09;;;;;;;15.18;2.88;;;33.60;27.60;;;;;;5100520;28;20440;-62
2022/07/09 06:06:36;;;;;;;12.40;2.58;;;33.50;27.10;;;;;;5086640;28;20099;-62
2022/07/09 06:09:02;;;;;;;10.77;1.80;;;33.40;27.40;;;;;;5087964;28;20099;-61
2022/07/09 06:11:29;;;;;;;16.48;2.47;;;33.40;27.60;;;;;;5091150;28;20078;-61
2022/07/09 06:13:55;;;;;;;10.85;2.05;;;33.40;27.50;;;;;;5091107;28;20086;-61
2022/07/09 06:16:21;;;;;;;16.63;2.58;;;33.30;27.80;;;;;;5074099;28;20075;-62
2022/07/09 06:18:48;;;;;;;19.48;2.60;;;33.30;26.80;;;;;;5091001;28;20484;-62
2022/07/09 06:21:14;;;;;;;14.10;2.15;;;33.20;27.40;;;;;;5091004;28;20071;-62
2022/07/09 06:23:41;;;;;;;18.27;3.17;;;33.20;27.30;;;;;;5070825;28;20547;-62
2022/07/09 06:26:07;;;;;;;21.80;2.35;;;33.20;27.00;;;;;;5090445;28;20083;-62
2022/07/09 06:28:37;;;;;;;20.45;3.13;;;33.20;26.70;;;;;;5090866;28;20194;-63
2022/07/09 06:31:04;;;;;;;16.27;2.72;;;33.00;26.70;;;;;;5091003;28;20200;-65
2022/07/09 06:33:30;;;;;;;19.58;2.92;;;33.00;26.90;;;;;;5090731;28;20138;-65
2022/07/09 06:35:57;;;;;;;13.50;2.40;;;33.00;26.80;;;;;;5088777;28;20086;-64
2022/07/09 06:38:23;;;;;;;17.98;2.38;;;33.00;27.30;;;;;;5107553;28;20085;-62
2022/07/09 06:40:49;;;;;;;15.23;2.65;;;33.00;27.10;;;;;;5090476;28;20071;-61
2022/07/09 06:43:16;;;;;;;12.95;2.58;;;32.90;27.20;;;;;;5087514;28;20090;-61
2022/07/09 06:45:42;;;;;;;21.83;2.38;;;32.90;27.00;;;;;;5090370;28;20480;-62
2022/07/09 06:48:08;;;;;;;15.00;2.67;;;32.90;26.50;;;;;;5091326;28;20440;-62
2022/07/09 06:50:35;;;;;;;20.63;2.40;;;32.90;26.50;;;;;;5090675;28;20496;-62
2022/07/09 06:53:01;;;;;;;18.75;2.30;;;32.80;26.40;;;;;;5088840;28;20071;-62
2022/07/09 06:55:28;;;;;;;15.07;2.22;;;32.80;26.60;;;;;;5085564;28;20460;-62
2022/07/09 06:57:54;;;;;;;7.40;2.10;;;32.70;26.60;;;;;;5085111;28;20087;-62
2022/07/09 07:00:20;;;;;;;15.15;2.17;;;32.80;26.60;;;;;;5084868;28;20116;-62
2022/07/09 07:02:47;;;;;;;16.15;2.78;;;32.70;26.90;;;;;;5085843;28;20090;-61
2022/07/09 07:05:13;;;;;;;9.02;2.13;;;32.60;26.60;;;;;;5085922;28;20443;-63
2022/07/09 07:07:39;;;;;;;18.65;2.03;;;32.60;26.60;;;;;;5112935;28;20124;-62
2022/07/09 07:10:06;;;;;;;17.52;2.28;;;32.50;26.90;;;;;;5094556;28;20189;-61
2022/07/09 07:12:32;;;;;;;14.35;2.53;;;32.60;27.00;;;;;;5112579;28;20071;-62
2022/07/09 07:14:59;;;;;;;9.68;1.83;;;32.50;26.80;;;;;;5092199;28;20102;-60
2022/07/09 07:17:25;;;;;;;16.55;2.10;;;32.70;26.30;;;;;;5095277;28;20166;-60
2022/07/09 07:19:52;;;;;;;13.95;2.13;;;32.80;25.80;;;;;;5093039;28;20576;-61
2022/07/09 07:22:18;;;;;;;12.82;2.33;;;32.90;25.60;;;;;;5087800;28;20083;-61
2022/07/09 07:24:44;;;;;;;13.07;2.28;;;32.90;25.90;;;;;;5088211;28;20082;-63
2022/07/09 07:27:11;;;;;;;12.23;1.98;;;33.10;25.90;;;;;;5076768;28;20106;-62
2022/07/09 07:29:37;;;;;;;14.75;2.05;;;33.00;25.10;;;;;;5092825;28;20110;-62
2022/07/09 07:32:04;;;;;;;14.80;2.20;;;33.10;24.90;;;;;;5108579;28;20086;-61
2022/07/09 07:34:33;;;;;;;11.13;1.95;;;33.20;24.90;;;;;;5110326;28;20075;-64
2022/07/09 07:37:00;;;;;;;8.20;1.73;;;33.20;24.90;;;;;;5111782;28;20110;-62
2022/07/09 07:39:26;;;;;;;8.02;1.50;;;33.10;24.80;;;;;;5111131;28;20067;-61
2022/07/09 07:41:53;;;;;;;9.63;1.52;;;33.30;24.40;;;;;;5110310;28;20079;-61
2022/07/09 07:44:19;;;;;;;14.13;1.60;;;33.30;24.50;;;;;;5092280;28;20078;-62
2022/07/09 07:46:45;;;;;;;9.15;1.85;;;33.30;24.20;;;;;;5060228;28;20082;-59
2022/07/09 07:49:12;;;;;;;9.02;1.30;;;33.30;24.50;;;;;;5112883;28;20086;-60
2022/07/09 07:51:38;;;;;;;12.60;1.88;;;33.30;25.10;;;;;;5111860;28;20067;-61
2022/07/09 07:54:05;;;;;;;6.25;1.73;;;33.40;24.70;;;;;;5093978;28;20071;-61
2022/07/09 07:56:33;;;;;;;12.10;1.90;;;33.30;24.80;;;;;;5112735;28;20462;-61
2022/07/09 07:58:59;;;;;;;6.75;1.52;;;33.30;25.30;;;;;;5111905;28;20218;-62
2022/07/09 08:01:26;;;;;;;10.65;2.03;;;33.20;25.10;;;;;;5077030;28;20086;-62
2022/07/09 08:03:52;;;;;;;7.35;1.63;;;33.10;25.40;;;;;;5109058;28;20537;-62
2022/07/09 08:06:18;;;;;;;3.47;1.75;;;33.10;25.80;;;;;;5092167;28;20547;-59
2022/07/09 08:08:45;;;;;;;10.75;1.90;;;33.00;25.70;;;;;;5094084;28;20132;-62
2022/07/09 08:11:14;;;;;;;9.65;1.40;;;32.80;25.80;;;;;;5111355;28;20098;-62
2022/07/09 08:13:41;;;;;;;9.13;1.70;;;32.80;26.50;;;;;;5111013;28;20075;-61
2022/07/09 08:16:07;;;;;;;9.00;1.42;;;32.80;26.50;;;;;;5092953;28;20397;-61
2022/07/09 08:18:34;;;;;;;13.45;1.50;;;32.80;25.70;;;;;;5093906;28;20079;-62
2022/07/09 08:21:00;;;;;;;9.20;1.60;;;32.70;25.80;;;;;;5110291;28;20136;-62
2022/07/09 08:23:30;;;;;;;12.18;1.80;;;32.60;26.10;;;;;;5091059;28;20529;-61
2022/07/09 08:25:57;;;;;;;9.52;1.55;;;32.50;26.40;;;;;;5112339;28;20083;-62
2022/07/09 08:28:24;;;;;;;8.07;1.35;;;32.50;26.80;;;;;;5109666;28;20161;-61
2022/07/09 08:30:50;;;;;;;6.22;1.60;;;32.50;26.70;;;;;;5110361;28;20842;-62
2022/07/09 08:33:16;;;;;;;8.48;1.55;;;32.30;26.20;;;;;;5092736;28;20067;-61
2022/07/09 08:35:43;;;;;;;14.75;1.63;;;32.30;25.60;;;;;;5093497;28;20111;-64
2022/07/09 08:38:10;;;;;;;9.65;1.42;;;32.30;26.50;;;;;;5092833;28;20158;-59
2022/07/09 08:40:37;;;;;;;6.30;1.67;;;32.30;26.40;;;;;;5110774;28;20070;-62
2022/07/09 08:43:04;;;;;;;6.00;1.40;;;32.30;25.90;;;;;;5089730;28;20093;-62
2022/07/09 08:45:31;;;;;;;8.38;1.63;;;32.30;26.00;;;;;;5074761;28;20070;-61
2022/07/09 08:48:00;;;;;;;6.40;1.40;;;32.30;26.60;;;;;;5093229;28;20087;-61
2022/07/09 08:50:27;;;;;;;8.13;1.52;;;32.20;26.50;;;;;;5076666;28;20153;-61
2022/07/09 08:52:55;;;;;;;14.02;2.05;;;31.90;26.80;;;;;;5091509;28;20178;-61
2022/07/09 08:55:22;;;;;;;5.30;1.60;;;31.90;27.00;;;;;;5102409;28;20152;-61
2022/07/09 08:57:51;;;;;;;14.18;2.00;;;31.90;27.30;;;;;;5074177;28;20067;-60
2022/07/09 09:00:17;;;;;;;8.07;1.50;;;31.70;27.00;;;;;;5074819;28;20166;-59
2022/07/09 09:02:43;;;;;;;8.55;1.45;;;31.50;26.20;;;;;;5072201;28;20126;-60
2022/07/09 09:05:18;;;;;;;8.48;1.60;;;31.50;26.80;;;;;;5089641;28;20072;-62
2022/07/09 09:07:44;;;;;;;9.63;1.10;;;31.50;26.40;;;;;;5059898;28;20181;-62
2022/07/09 09:10:25;;;;;;;8.52;1.58;;;31.40;26.50;;;;;;5111366;28;20115;-62
2022/07/09 09:12:59;;;;;;;11.30;1.42;;;31.30;26.20;;;;;;5110335;28;20172;-62
2022/07/09 09:15:27;;;;;;;10.20;1.45;;;31.30;25.80;;;;;;5092601;28;20066;-62
2022/07/09 09:17:54;;;;;;;6.95;1.08;;;31.30;26.00;;;;;;5109107;28;20071;-62
2022/07/09 09:20:21;;;;;;;11.23;1.30;;;31.20;25.70;;;;;;5108507;28;20160;-62
2022/07/09 09:22:59;;;;;;;14.18;1.45;;;31.20;25.90;;;;;;5108896;28;20069;-61
2022/07/09 09:25:27;;;;;;;11.45;1.60;;;31.20;25.80;;;;;;5108896;28;20222;-62
2022/07/09 09:27:58;;;;;;;9.23;1.50;;;31.00;26.40;;;;;;5092314;28;20492;-61
2022/07/09 09:30:26;;;;;;;5.30;1.10;;;31.10;26.40;;;;;;5091071;28;20662;-61
2022/07/09 09:33:03;;;;;;;9.52;1.38;;;30.90;26.40;;;;;;5109530;28;20078;-61
2022/07/09 09:35:41;;;;;;;13.50;1.55;;;31.00;26.70;;;;;;5090105;28;20086;-60
2022/07/09 09:38:08;;;;;;;10.95;1.52;;;31.00;26.20;;;;;;5075673;28;20417;-61
2022/07/09 09:40:36;;;;;;;14.07;1.50;;;30.90;26.30;;;;;;5091049;28;20555;-61
2022/07/09 09:43:03;;;;;;;8.88;1.40;;;30.90;26.20;;;;;;5091216;28;20791;-60
2022/07/09 09:45:32;;;;;;;10.07;1.65;;;30.90;25.80;;;;;;5109326;28;20551;-59
2022/07/09 09:48:00;;;;;;;6.57;1.50;;;30.90;25.60;;;;;;5090191;28;20145;-61
2022/07/09 09:50:26;;;;;;;6.82;1.58;;;30.90;25.50;;;;;;5091737;28;20121;-63
2022/07/09 09:52:55;;;;;;;12.18;1.55;;;30.90;25.20;;;;;;5109260;28;20178;-59
2022/07/09 09:55:23;;;;;;;9.50;1.52;;;30.80;25.40;;;;;;5090157;28;20086;-60
2022/07/09 09:57:50;;;;;;;9.52;1.25;;;30.90;24.30;;;;;;5089840;28;20525;-60
2022/07/09 10:00:16;;;;;;;11.55;1.45;;;30.90;24.60;;;;;;5091616;28;20594;-61
2022/07/09 10:02:45;;;;;;;10.52;1.40;;;30.90;24.40;;;;;;5090820;28;20095;-63
2022/07/09 10:05:11;;;;;;;4.38;1.05;;;31.00;24.40;;;;;;5089604;28;20067;-60
2022/07/09 10:07:40;;;;;;;11.98;1.80;;;30.90;23.90;;;;;;5087270;28;20425;-63
2022/07/09 10:10:07;;;;;;;8.82;1.10;;;31.00;24.20;;;;;;5086441;28;20508;-62
2022/07/09 10:12:36;;;;;;;7.80;1.58;;;30.90;24.00;;;;;;5076955;28;20098;-61
2022/07/09 10:15:26;;;;;;;5.57;1.33;;;31.00;24.40;;;;;;5089974;28;20158;-61
2022/07/09 10:17:53;;;;;;;9.13;1.13;;;31.00;23.90;;;;;;5087024;28;20067;-62
2022/07/09 10:20:43;;;;;;;8.57;1.40;;;30.90;23.10;;;;;;5104297;28;20113;-62
2022/07/09 10:23:19;;;;;;;8.07;1.52;;;30.90;23.80;;;;;;5089522;28;20072;-60
2022/07/09 10:25:46;;;;;;;6.32;1.20;;;30.90;22.80;;;;;;5087561;28;20066;-60
2022/07/09 10:28:20;;;;;;;5.35;1.27;;;30.90;22.90;;;;;;5088199;28;20110;-60
2022/07/09 10:30:47;;;;;;;5.10;1.15;;;30.80;23.20;;;;;;5089778;28;20404;-64
2022/07/09 10:33:29;;;;;;;3.95;1.00;;;30.90;23.60;;;;;;5090191;28;20067;-60
2022/07/09 10:35:57;;;;;;;3.47;0.90;;;30.80;22.90;;;;;;5090780;28;20090;-62
2022/07/09 10:38:36;;;;;;;6.18;1.20;;;30.90;22.40;;;;;;5088262;28;20105;-60
2022/07/09 10:41:03;;;;;;;7.22;1.20;;;30.80;23.40;;;;;;5085636;28;20140;-62
2022/07/09 10:43:40;;;;;;;3.45;0.88;;;30.80;22.80;;;;;;5089658;28;20111;-60
2022/07/09 10:46:14;;;;;;;4.57;1.15;;;30.80;23.10;;;;;;5074794;28;20078;-60
2022/07/09 10:48:41;;;;;;;7.60;1.02;;;30.80;23.10;;;;;;5075028;28;20174;-59
2022/07/09 10:51:08;;;;;;;3.75;0.90;;;30.70;22.60;;;;;;5090519;28;20067;-59
2022/07/09 10:53:34;;;;;;;9.40;1.27;;;30.70;22.60;;;;;;5083480;28;20074;-57
2022/07/09 10:56:00;;;;;;;9.43;1.15;;;30.70;22.50;;;;;;5085140;28;20079;-60
2022/07/09 10:58:28;;;;;;;12.07;1.23;;;30.70;22.90;;;;;;5069118;28;20106;-63
2022/07/09 11:01:00;;;;;;;6.50;1.00;;;30.60;23.20;;;;;;5087424;28;20071;-63
2022/07/09 11:03:27;;;;;;;5.75;1.48;;;30.60;22.90;;;;;;5084240;28;20107;-65
2022/07/09 11:05:54;;;;;;;5.90;1.02;;;30.60;23.40;;;;;;5106346;28;21069;-67
2022/07/09 11:08:21;;;;;;;5.85;0.95;;;30.50;22.60;;;;;;5104066;28;20084;-70
2022/07/09 11:10:47;;;;;;;3.95;0.85;;;30.50;22.80;;;;;;5091000;28;20067;-67
2022/07/09 11:13:14;;;;;;;3.70;1.25;;;30.40;22.90;;;;;;5089927;28;20103;-67
2022/07/09 11:15:41;;;;;;;3.78;0.80;;;30.40;22.80;;;;;;5107368;28;20094;-68
2022/07/09 11:18:09;;;;;;;2.83;0.90;;;30.40;22.80;;;;;;5090378;28;20063;-68
2022/07/09 11:20:47;;;;;;;5.63;1.05;;;30.40;23.10;;;;;;5074779;28;20095;-68
2022/07/09 11:23:15;;;;;;;5.80;1.10;;;30.30;23.60;;;;;;5088721;28;20540;-68
2022/07/09 11:25:42;;;;;;;9.45;1.02;;;30.30;23.60;;;;;;5086261;28;20088;-67
2022/07/09 11:28:18;;;;;;;6.35;1.20;;;30.20;24.00;;;;;;5081842;28;20110;-69
2022/07/09 11:30:44;;;;;;;5.75;1.25;;;30.20;24.70;;;;;;5087460;28;20067;-68
2022/07/09 11:33:14;;;;;;;2.80;1.27;;;30.20;24.80;;;;;;5084329;28;20083;-67
2022/07/09 11:35:44;;;;;;;8.80;1.35;;;30.00;24.50;;;;;;5087050;28;20169;-67
2022/07/09 11:38:11;;;;;;;8.73;1.60;;;30.00;26.90;;;;;;5087244;28;20071;-68
2022/07/09 11:40:37;;;;;;;8.52;1.63;;;30.00;25.20;;;;;;5088479;28;20609;-71
2022/07/09 11:43:14;;;;;;;5.70;1.25;;;29.90;25.00;;;;;;5091026;28;20495;-68
2022/07/09 11:45:51;;;;;;;11.25;1.88;;;29.90;25.50;;;;;;5091395;28;20082;-67
2022/07/09 11:48:17;;;;;;;;;;;29.90;25.70;;;;;;5098728;28;20071;-67
2022/07/09 11:50:45;;;;;;;13.15;2.13;;;29.80;24.60;;;;;;5091317;28;19962;-68
2022/07/09 11:53:27;;;;;;;6.70;2.10;;;29.80;26.20;;;;;;5092620;28;20143;-67
2022/07/09 11:56:02;;;;;;;17.55;2.50;;;29.70;26.80;;;;;;5094068;28;20082;-68
2022/07/09 11:58:28;;;;;;;14.15;2.70;;;29.70;26.60;;;;;;5093608;28;20174;-67
2022/07/09 12:00:55;;;;;;;14.57;2.42;;;29.60;25.40;;;;;;5092495;28;20074;-68
2022/07/09 12:03:25;;;;;;;11.35;2.88;;;29.60;26.30;;;;;;5093943;28;20088;-68
2022/07/09 12:05:52;;;;;;;24.08;3.08;;;29.50;26.30;;;;;;5093629;28;20075;-68
2022/07/09 12:08:31;;;;;;;13.50;3.00;;;29.50;25.50;;;;;;5072812;28;20536;-68
2022/07/09 12:11:00;;;;;;;15.80;3.08;;;29.40;26.10;;;;;;5094399;28;20093;-70
2022/07/09 12:13:26;;;;;;;23.23;4.32;;;29.40;27.40;;;;;;5090018;28;20164;-67
2022/07/09 12:15:52;;;;;;;17.63;4.22;;;29.40;27.90;;;;;;5091003;28;20079;-67
2022/07/09 12:18:19;;;;;;;22.17;4.90;;;29.30;27.30;;;;;;5092727;28;20119;-67
2022/07/09 12:20:45;;;;;;;31.35;5.72;;;29.30;26.90;;;;;;5093515;28;20080;-66
2022/07/09 12:23:12;;;;;;;41.60;7.72;;;29.30;28.70;;;;;;5092519;28;20096;-67
2022/07/09 12:25:39;;;;;;;28.80;6.05;;;29.20;28.20;;;;;;5093854;28;20580;-67
2022/07/09 12:28:05;;;;;;;31.45;7.13;;;29.20;28.30;;;;;;5091005;28;20583;-66
2022/07/09 12:30:32;;;;;;;34.67;7.68;;;29.20;27.90;;;;;;5091774;28;20556;-68
2022/07/09 12:32:58;;;;;;;40.95;8.63;;;29.20;29.50;;;;;;5090729;28;20086;-68
2022/07/09 12:35:26;;;;;;;44.58;9.20;;;29.10;28.40;;;;;;5091961;28;20114;-68
2022/07/09 12:37:52;;;;;;;32.53;8.88;;;29.00;27.90;;;;;;5102428;28;20079;-68
2022/07/09 12:40:19;;;;;;;43.00;11.30;;;29.00;29.80;;;;;;5089104;28;21452;-68
2022/07/09 12:42:45;;;;;;;37.63;10.30;;;29.00;29.70;;;;;;5090778;28;20148;-68